Time;durP1;ratioP1;P1;durP2;ratioP2;P2;SDS_P1;SDS_P2;PMS_P1;PMS_P2;Temp;Humidity;BMP_temperature;BMP_pressure;BME280_temperature;BME280_humidity;BME280_pressure;Samples;Min_cycle;Max_cycle;Signal;HPM_P1;HPM_P2
2022/01/21 00:01:37;;;;;;;7.87;1.70;;;1.10;99.90;;;;;;5039854;28;20302;-76
2022/01/21 00:04:03;;;;;;;6.30;1.77;;;1.10;99.90;;;;;;5040636;28;20049;-76
2022/01/21 00:06:30;;;;;;;8.37;2.27;;;1.10;99.90;;;;;;5073686;28;20033;-76
2022/01/21 00:08:55;;;;;;;7.57;1.80;;;1.10;99.90;;;;;;5024831;28;20053;-75
2022/01/21 00:11:24;;;;;;;12.83;2.17;;;1.10;99.90;;;;;;5004753;28;20084;-76
2022/01/21 00:13:51;;;;;;;11.30;2.40;;;1.10;99.90;;;;;;5050194;28;20033;-76
2022/01/21 00:16:19;;;;;;;12.13;1.83;;;1.10;99.90;;;;;;5054379;28;20056;-76
2022/01/21 00:19:05;;;;;;;6.47;1.83;;;1.10;99.90;;;;;;5039443;28;20060;-75
2022/01/21 00:32:31;;;;;;;12.97;1.93;;;1.00;99.90;;;;;;5030486;28;20287;-76
2022/01/21 00:34:57;;;;;;;11.07;2.00;;;1.00;99.90;;;;;;5044517;28;20068;-76
2022/01/21 00:37:23;;;;;;;10.70;2.27;;;1.10;99.90;;;;;;5009221;28;20432;-76
2022/01/21 00:39:55;;;;;;;6.83;2.10;;;1.10;99.90;;;;;;5039316;28;20117;-75
2022/01/21 00:44:53;;;;;;;14.50;2.60;;;1.20;99.90;;;;;;5064979;28;20321;-75
2022/01/21 00:47:19;;;;;;;13.37;2.37;;;1.20;99.90;;;;;;5040117;28;20315;-76
2022/01/21 00:49:45;;;;;;;12.23;2.47;;;1.30;99.90;;;;;;5045078;28;20056;-76
2022/01/21 00:52:10;;;;;;;12.03;3.00;;;1.30;99.90;;;;;;5039688;28;20345;-76
2022/01/21 00:54:37;;;;;;;9.40;3.00;;;1.40;99.90;;;;;;5035150;28;20552;-76
2022/01/21 00:57:03;;;;;;;12.03;2.40;;;1.50;99.90;;;;;;5039118;28;20465;-75
2022/01/21 00:59:29;;;;;;;11.23;2.30;;;1.60;99.90;;;;;;5029006;28;20291;-75
2022/01/21 01:01:55;;;;;;;11.67;2.30;;;1.60;99.90;;;;;;5023291;28;20294;-75
2022/01/21 01:04:21;;;;;;;9.43;2.17;;;1.70;99.90;;;;;;5023530;28;20087;-76
2022/01/21 01:06:46;;;;;;;13.73;2.43;;;1.70;99.90;;;;;;5023564;28;20063;-75
2022/01/21 01:09:13;;;;;;;15.37;2.13;;;1.80;99.90;;;;;;5003005;28;20054;-75
2022/01/21 01:22:24;;;;;;;9.87;2.03;;;2.00;99.90;;;;;;5059440;28;20056;-76
2022/01/21 01:27:40;;;;;;;7.07;2.00;;;2.00;99.90;;;;;;5041093;28;20037;-75
2022/01/21 01:30:09;;;;;;;12.77;2.50;;;2.00;99.90;;;;;;5011436;28;20049;-76
2022/01/21 01:32:36;;;;;;;15.77;2.33;;;2.00;99.90;;;;;;5043180;28;20087;-76
2022/01/21 01:35:02;;;;;;;12.37;1.87;;;2.00;99.90;;;;;;5054638;28;20080;-76
2022/01/21 01:37:48;;;;;;;11.50;2.20;;;2.00;99.90;;;;;;5026483;28;20067;-75
2022/01/21 01:40:36;;;;;;;7.93;1.83;;;1.90;99.90;;;;;;5042238;28;20053;-75
2022/01/21 01:51:06;;;;;;;6.73;1.90;;;1.80;99.90;;;;;;5045425;28;20060;-75
2022/01/21 01:53:41;;;;;;;9.10;1.90;;;1.80;99.90;;;;;;5026264;28;20040;-75
2022/01/21 01:56:10;;;;;;;9.93;2.13;;;1.80;99.90;;;;;;5038320;28;20214;-75
2022/01/21 01:58:38;;;;;;;14.83;2.30;;;1.80;99.90;;;;;;5038864;28;20064;-76
2022/01/21 02:01:05;;;;;;;12.13;2.10;;;1.80;99.90;;;;;;5037874;28;20049;-76
2022/01/21 02:03:32;;;;;;;11.27;1.90;;;1.80;99.90;;;;;;5022551;28;20051;-75
2022/01/21 02:05:58;;;;;;;12.70;2.00;;;1.80;99.90;;;;;;5054747;28;20047;-75
2022/01/21 02:08:25;;;;;;;11.87;2.00;;;1.80;99.90;;;;;;5021987;28;20072;-76
2022/01/21 02:10:51;;;;;;;11.13;1.97;;;1.80;99.90;;;;;;5039196;28;20060;-76
2022/01/21 02:13:27;;;;;;;10.80;2.00;;;1.80;99.90;;;;;;5054370;28;20453;-76
2022/01/21 02:21:39;;;;;;;10.00;2.00;;;1.80;99.90;;;;;;5054877;28;20435;-76
2022/01/21 02:27:12;;;;;;;9.90;2.10;;;1.80;99.90;;;;;;5063320;28;20053;-76
2022/01/21 02:29:46;;;;;;;10.70;2.03;;;1.70;99.90;;;;;;5038818;28;20049;-76
2022/01/21 02:32:13;;;;;;;9.70;2.00;;;1.70;99.90;;;;;;5051184;28;20051;-75
2022/01/21 02:34:39;;;;;;;12.03;2.70;;;1.70;99.90;;;;;;5055735;28;20053;-76
2022/01/21 02:37:06;;;;;;;10.13;1.90;;;1.70;99.90;;;;;;5056171;28;20405;-75
2022/01/21 02:39:31;;;;;;;11.00;1.80;;;1.80;99.90;;;;;;5038441;28;20109;-75
2022/01/21 02:41:57;;;;;;;9.13;1.80;;;1.90;99.90;;;;;;5039361;28;20111;-75
2022/01/21 02:44:24;;;;;;;12.77;1.63;;;1.80;99.90;;;;;;5021913;28;20083;-75
2022/01/21 02:46:57;;;;;;;7.37;1.33;;;1.80;99.90;;;;;;5055070;28;20040;-75
2022/01/21 02:49:23;;;;;;;6.27;1.40;;;1.80;99.90;;;;;;5029958;28;20118;-75
2022/01/21 02:51:53;;;;;;;7.13;1.33;;;1.90;99.90;;;;;;5030419;28;20127;-76
2022/01/21 02:54:19;;;;;;;8.63;1.90;;;1.90;99.90;;;;;;5039744;28;20082;-75
2022/01/21 02:56:45;;;;;;;10.90;1.60;;;1.90;99.90;;;;;;5021303;28;20368;-75
2022/01/21 02:59:11;;;;;;;7.27;1.60;;;1.80;99.90;;;;;;5021961;28;20112;-75
2022/01/21 03:01:40;;;;;;;8.20;1.43;;;1.70;99.90;;;;;;5021771;28;20045;-76
2022/01/21 03:04:07;;;;;;;6.27;1.30;;;1.90;99.90;;;;;;5038282;28;20737;-76
2022/01/21 03:06:36;;;;;;;7.37;1.90;;;1.80;99.90;;;;;;5058307;28;20300;-76
2022/01/21 03:09:04;;;;;;;6.50;1.60;;;1.70;99.90;;;;;;5041481;28;20210;-75
2022/01/21 03:11:30;;;;;;;6.57;1.20;;;1.80;99.90;;;;;;5060900;28;20044;-76
2022/01/21 03:13:56;;;;;;;6.27;1.30;;;1.80;99.90;;;;;;5041282;28;20276;-75
2022/01/21 03:16:23;;;;;;;7.53;1.00;;;1.80;99.90;;;;;;5032024;28;20049;-76
2022/01/21 03:18:49;;;;;;;8.03;1.77;;;1.80;99.90;;;;;;5048139;28;20627;-75
2022/01/21 03:21:17;;;;;;;9.77;1.70;;;1.90;99.90;;;;;;5027315;28;20109;-75
2022/01/21 03:23:48;;;;;;;10.57;1.73;;;1.90;99.90;;;;;;5055123;28;20622;-75
2022/01/21 03:26:22;;;;;;;5.53;1.13;;;1.90;99.90;;;;;;5040975;28;20315;-76
2022/01/21 03:28:50;;;;;;;8.03;1.40;;;1.90;99.90;;;;;;5028593;28;20141;-77
2022/01/21 03:31:16;;;;;;;11.00;1.17;;;1.90;99.90;;;;;;5051705;28;20618;-75
2022/01/21 03:33:43;;;;;;;9.00;1.40;;;2.00;99.90;;;;;;5058219;28;20064;-76
2022/01/21 03:36:10;;;;;;;8.37;1.27;;;2.00;99.90;;;;;;5040111;28;20087;-75
2022/01/21 03:38:37;;;;;;;6.60;1.37;;;2.10;99.90;;;;;;5040982;28;20375;-76
2022/01/21 03:41:03;;;;;;;8.73;1.30;;;2.00;99.90;;;;;;5035969;28;20415;-75
2022/01/21 03:43:29;;;;;;;6.27;1.00;;;2.00;99.90;;;;;;5022237;28;20049;-76
2022/01/21 03:45:55;;;;;;;5.80;1.00;;;2.10;99.90;;;;;;5025634;28;20499;-76
2022/01/21 03:48:21;;;;;;;6.90;1.23;;;2.10;99.90;;;;;;5023982;28;20834;-76
2022/01/21 03:50:47;;;;;;;7.07;1.20;;;2.10;99.90;;;;;;5025169;28;20064;-76
2022/01/21 03:53:13;;;;;;;4.73;0.90;;;2.10;99.90;;;;;;5073486;28;20048;-75
2022/01/21 03:55:39;;;;;;;5.43;1.10;;;2.20;99.90;;;;;;5050882;28;20048;-75
2022/01/21 03:58:07;;;;;;;4.80;1.10;;;2.10;99.90;;;;;;5029058;28;20113;-75
2022/01/21 04:00:38;;;;;;;5.23;1.27;;;2.10;99.90;;;;;;5024349;28;20041;-75
2022/01/21 04:03:04;;;;;;;6.75;1.23;;;2.10;99.90;;;;;;5074670;28;20075;-76
2022/01/21 04:05:31;;;;;;;5.90;1.60;;;2.10;99.90;;;;;;5023979;28;20037;-75
2022/01/21 04:07:57;;;;;;;11.20;1.50;;;2.10;99.90;;;;;;5057881;28;20067;-76
2022/01/21 04:10:23;;;;;;;5.73;1.30;;;2.00;99.90;;;;;;5030344;28;20082;-75
2022/01/21 04:12:49;;;;;;;8.43;1.87;;;2.00;99.90;;;;;;5010263;28;20041;-75
2022/01/21 04:15:16;;;;;;;6.47;1.10;;;2.00;99.90;;;;;;5004823;28;20548;-75
2022/01/21 04:17:41;;;;;;;6.07;1.00;;;1.90;99.90;;;;;;5039250;28;20485;-76
2022/01/21 04:20:09;;;;;;;8.70;1.50;;;1.90;99.90;;;;;;5025183;28;20037;-75
2022/01/21 04:22:35;;;;;;;5.70;1.00;;;1.90;99.90;;;;;;5040474;28;20037;-75
2022/01/21 04:25:02;;;;;;;6.60;1.13;;;1.90;99.90;;;;;;5041239;28;20113;-75
2022/01/21 04:27:27;;;;;;;4.83;1.00;;;1.80;99.90;;;;;;5023880;28;20150;-76
2022/01/21 04:29:53;;;;;;;7.50;1.57;;;1.80;99.90;;;;;;5058000;28;20048;-75
2022/01/21 04:32:19;;;;;;;5.63;1.07;;;1.80;99.90;;;;;;5008326;28;20076;-75
2022/01/21 04:34:45;;;;;;;5.47;1.17;;;1.80;99.90;;;;;;5040016;28;20037;-76
2022/01/21 04:37:14;;;;;;;3.80;1.10;;;1.80;99.90;;;;;;5040938;28;20108;-75
2022/01/21 04:39:48;;;;;;;9.57;1.33;;;1.80;99.90;;;;;;5040708;28;20045;-75
2022/01/21 04:47:33;;;;;;;5.57;1.10;;;1.80;99.90;;;;;;5042480;28;20112;-75
2022/01/21 04:49:59;;;;;;;7.97;1.47;;;1.80;99.90;;;;;;5036813;28;20048;-75
2022/01/21 04:52:25;;;;;;;7.93;1.77;;;1.80;99.90;;;;;;5022927;28;20052;-76
2022/01/21 04:54:51;;;;;;;6.57;1.50;;;1.80;99.90;;;;;;5046438;28;20045;-75
2022/01/21 04:57:17;;;;;;;7.17;1.17;;;1.80;99.90;;;;;;5039464;28;20049;-76
2022/01/21 04:59:43;;;;;;;4.40;1.50;;;1.70;99.90;;;;;;5051349;28;20422;-76
2022/01/21 05:02:09;;;;;;;6.27;1.30;;;1.70;99.90;;;;;;5025204;28;20756;-75
2022/01/21 05:04:36;;;;;;;7.07;1.40;;;1.70;99.90;;;;;;5022969;28;20087;-76
2022/01/21 05:07:04;;;;;;;9.33;1.50;;;1.70;99.90;;;;;;5040221;28;20052;-76
2022/01/21 05:09:32;;;;;;;7.23;1.20;;;1.60;99.90;;;;;;5023172;28;20072;-75
2022/01/21 05:12:01;;;;;;;7.93;1.33;;;1.60;99.90;;;;;;5040126;28;20134;-75
2022/01/21 05:14:47;;;;;;;8.40;1.60;;;1.60;99.90;;;;;;5039146;28;20044;-75
2022/01/21 05:17:15;;;;;;;8.60;1.43;;;1.60;99.90;;;;;;5025821;28;20104;-76
2022/01/21 05:19:41;;;;;;;8.57;1.30;;;1.60;99.90;;;;;;5072818;28;20110;-75
2022/01/21 05:22:07;;;;;;;7.67;1.83;;;1.60;99.90;;;;;;5039075;28;20048;-75
2022/01/21 05:24:32;;;;;;;10.13;1.77;;;1.60;99.90;;;;;;5073200;28;20519;-76
2022/01/21 05:27:00;;;;;;;8.50;1.60;;;1.50;99.90;;;;;;5022755;28;20109;-76
2022/01/21 05:29:28;;;;;;;8.13;1.43;;;1.60;99.90;;;;;;5046991;28;20059;-76
2022/01/21 05:31:55;;;;;;;8.30;1.47;;;1.50;99.90;;;;;;5023084;28;20108;-76
2022/01/21 05:34:21;;;;;;;12.67;2.00;;;1.60;99.90;;;;;;5038913;28;20052;-76
2022/01/21 05:36:47;;;;;;;9.57;1.50;;;1.60;99.90;;;;;;5023780;28;22030;-76
2022/01/21 05:39:14;;;;;;;10.17;1.73;;;1.60;99.90;;;;;;5071582;28;20037;-76
2022/01/21 05:41:45;;;;;;;10.80;1.60;;;1.60;99.90;;;;;;5023337;28;20044;-76
2022/01/21 05:44:17;;;;;;;8.37;2.00;;;1.60;99.90;;;;;;5071659;28;20041;-76
2022/01/21 05:46:55;;;;;;;9.50;1.87;;;1.60;99.90;;;;;;5026800;28;20037;-76
2022/01/21 05:49:21;;;;;;;8.93;2.00;;;1.60;99.90;;;;;;5023289;28;20314;-75
2022/01/21 05:51:47;;;;;;;8.47;1.77;;;1.60;99.90;;;;;;5042916;28;20637;-75
2022/01/21 05:54:13;;;;;;;16.13;2.47;;;1.50;99.90;;;;;;5060493;28;20086;-76
2022/01/21 05:56:40;;;;;;;10.30;2.27;;;1.60;99.90;;;;;;5046716;28;20688;-76
2022/01/21 05:59:07;;;;;;;11.97;2.87;;;1.50;99.90;;;;;;5042984;28;20082;-75
2022/01/21 06:01:34;;;;;;;8.93;1.67;;;1.50;99.90;;;;;;5027883;28;20072;-75
2022/01/21 06:04:01;;;;;;;11.53;1.83;;;1.60;99.90;;;;;;5072048;28;20139;-76
2022/01/21 06:06:29;;;;;;;9.23;1.70;;;1.50;99.90;;;;;;5039227;28;20339;-75
2022/01/21 06:08:55;;;;;;;9.67;1.77;;;1.60;99.90;;;;;;5025062;28;20302;-75
2022/01/21 06:11:21;;;;;;;6.60;1.70;;;1.50;99.90;;;;;;5049983;28;20775;-77
2022/01/21 06:13:49;;;;;;;9.70;1.60;;;1.60;99.90;;;;;;5021807;28;20528;-75
2022/01/21 06:16:16;;;;;;;12.90;1.60;;;1.60;99.90;;;;;;5039870;28;20056;-76
2022/01/21 06:18:42;;;;;;;10.93;2.00;;;1.60;99.90;;;;;;5038793;28;20356;-75
2022/01/21 06:21:08;;;;;;;14.00;2.23;;;1.60;99.90;;;;;;5022762;28;20045;-76
2022/01/21 06:23:33;;;;;;;13.00;1.87;;;1.60;99.90;;;;;;5006177;28;20140;-76
2022/01/21 06:25:59;;;;;;;13.07;1.90;;;1.70;99.90;;;;;;5055128;28;20061;-76
2022/01/21 06:28:25;;;;;;;11.07;2.10;;;1.70;99.90;;;;;;5019918;28;20038;-75
2022/01/21 06:30:51;;;;;;;7.90;1.80;;;1.70;99.90;;;;;;5043778;28;20072;-76
2022/01/21 06:33:17;;;;;;;9.97;1.70;;;1.70;99.90;;;;;;5022930;28;20041;-76
2022/01/21 06:35:42;;;;;;;6.23;1.43;;;1.70;99.90;;;;;;5022101;28;20053;-75
2022/01/21 06:38:08;;;;;;;8.40;2.30;;;1.80;99.90;;;;;;5007044;28;20094;-75
2022/01/21 06:40:53;;;;;;;11.43;1.70;;;1.70;99.90;;;;;;5009489;28;20106;-75
2022/01/21 06:43:19;;;;;;;10.30;1.63;;;1.80;99.90;;;;;;5038493;28;20095;-77
2022/01/21 06:45:45;;;;;;;9.53;1.90;;;1.80;99.90;;;;;;5059807;28;20040;-76
2022/01/21 06:48:10;;;;;;;14.87;1.80;;;1.80;99.90;;;;;;5041704;28;20075;-75
2022/01/21 06:50:38;;;;;;;8.07;1.70;;;1.80;99.90;;;;;;5053158;28;20051;-76
2022/01/21 06:53:04;;;;;;;10.50;1.87;;;1.80;99.90;;;;;;5075967;28;20051;-75
2022/01/21 06:55:30;;;;;;;11.63;1.63;;;1.90;99.90;;;;;;5059108;28;20363;-75
2022/01/21 06:57:56;;;;;;;7.53;1.43;;;1.80;99.90;;;;;;5025814;28;20194;-77
2022/01/21 07:00:22;;;;;;;13.13;1.90;;;1.80;99.90;;;;;;5025129;28;20974;-76
2022/01/21 07:02:49;;;;;;;10.10;1.77;;;1.80;99.90;;;;;;5041816;28;20422;-77
2022/01/21 07:05:16;;;;;;;8.47;2.27;;;1.80;99.90;;;;;;5054667;28;20085;-77
2022/01/21 07:07:42;;;;;;;6.17;1.60;;;1.80;99.90;;;;;;5058012;28;20084;-78
2022/01/21 07:10:11;;;;;;;9.53;1.87;;;1.70;99.90;;;;;;5041173;28;20525;-78
2022/01/21 07:12:38;;;;;;;9.43;2.10;;;1.70;99.90;;;;;;5064062;28;20048;-77
2022/01/21 07:15:06;;;;;;;10.40;1.77;;;1.70;99.90;;;;;;5050230;28;20048;-77
2022/01/21 07:17:32;;;;;;;8.63;1.73;;;1.60;99.90;;;;;;5054095;28;20079;-79
2022/01/21 07:19:57;;;;;;;6.47;1.53;;;1.60;99.90;;;;;;5028532;28;20302;-77
2022/01/21 07:22:23;;;;;;;9.17;1.63;;;1.60;99.90;;;;;;5056348;28;20139;-77
2022/01/21 07:24:49;;;;;;;9.13;1.40;;;1.60;99.90;;;;;;5050269;28;20060;-79
2022/01/21 07:27:15;;;;;;;7.17;1.50;;;1.60;99.90;;;;;;5052577;28;20051;-77
2022/01/21 07:29:41;;;;;;;9.43;1.90;;;1.50;99.90;;;;;;5011885;28;20083;-78
2022/01/21 07:32:07;;;;;;;7.77;1.97;;;1.50;99.90;;;;;;5036006;28;20045;-77
2022/01/21 07:34:33;;;;;;;10.07;2.10;;;1.50;99.90;;;;;;5037807;28;20051;-78
2022/01/21 07:36:59;;;;;;;9.13;1.50;;;1.40;99.90;;;;;;5030438;28;20355;-77
2022/01/21 07:39:25;;;;;;;7.30;1.63;;;1.40;99.90;;;;;;5055020;28;20056;-79
2022/01/21 07:41:51;;;;;;;9.77;1.83;;;1.30;99.90;;;;;;5036358;28;20048;-78
2022/01/21 07:44:17;;;;;;;9.10;1.97;;;1.30;99.90;;;;;;5022765;28;20044;-77
2022/01/21 07:46:44;;;;;;;11.27;2.10;;;1.30;99.90;;;;;;5056898;28;20908;-76
2022/01/21 07:49:15;;;;;;;9.27;1.73;;;1.20;99.90;;;;;;5056009;28;20443;-77
2022/01/21 07:51:42;;;;;;;8.70;1.70;;;1.20;99.90;;;;;;5037675;28;20296;-77
2022/01/21 07:54:08;;;;;;;14.07;1.93;;;1.30;99.90;;;;;;5022556;28;20037;-77
2022/01/21 07:56:34;;;;;;;6.70;1.80;;;1.30;99.90;;;;;;5023637;28;20288;-76
2022/01/21 07:59:03;;;;;;;9.90;1.90;;;1.40;99.90;;;;;;5022455;28;20504;-77
2022/01/21 08:01:29;;;;;;;7.23;1.63;;;1.40;99.90;;;;;;5056327;28;20338;-77
2022/01/21 08:03:54;;;;;;;11.20;2.30;;;1.50;99.90;;;;;;5052582;28;20295;-77
2022/01/21 08:06:20;;;;;;;10.03;1.90;;;1.50;99.90;;;;;;5054459;28;20048;-77
2022/01/21 08:08:46;;;;;;;11.37;1.97;;;1.60;99.90;;;;;;5037483;28;20048;-77
2022/01/21 08:11:12;;;;;;;9.73;2.03;;;1.60;99.90;;;;;;5039243;28;20055;-78
2022/01/21 08:13:38;;;;;;;9.53;1.80;;;1.60;99.90;;;;;;5038246;28;20076;-78
2022/01/21 08:16:04;;;;;;;9.27;1.60;;;1.60;99.90;;;;;;5039665;28;20045;-77
2022/01/21 08:18:30;;;;;;;13.27;2.33;;;1.70;99.90;;;;;;5002998;28;20045;-78
2022/01/21 08:20:55;;;;;;;10.53;2.40;;;1.70;99.90;;;;;;5041392;28;20203;-77
2022/01/21 08:23:21;;;;;;;8.70;1.97;;;1.80;99.90;;;;;;5039308;28;20580;-77
2022/01/21 08:25:47;;;;;;;10.97;2.43;;;1.80;99.90;;;;;;5059275;28;20055;-77
2022/01/21 08:28:13;;;;;;;14.03;2.00;;;1.90;99.90;;;;;;5055651;28;20057;-77
2022/01/21 08:30:39;;;;;;;8.00;2.07;;;1.90;99.90;;;;;;5062416;28;20875;-77
2022/01/21 08:33:05;;;;;;;11.73;2.50;;;2.00;99.90;;;;;;5026675;28;20136;-77
2022/01/21 08:35:32;;;;;;;10.33;1.90;;;2.00;99.90;;;;;;5038346;28;20056;-77
2022/01/21 08:37:58;;;;;;;10.07;1.97;;;2.10;99.90;;;;;;5038593;28;20169;-77
2022/01/21 08:40:25;;;;;;;8.73;2.30;;;2.20;99.90;;;;;;5062084;28;20083;-77
2022/01/21 08:42:51;;;;;;;8.43;2.10;;;2.30;99.90;;;;;;5022055;28;20362;-77
2022/01/21 08:45:18;;;;;;;8.67;3.23;;;2.30;99.90;;;;;;5005980;28;20048;-77
2022/01/21 08:47:43;;;;;;;12.57;4.40;;;2.40;99.90;;;;;;5021597;28;20045;-77
2022/01/21 08:50:11;;;;;;;16.57;3.47;;;2.50;99.90;;;;;;5021409;28;20053;-77
2022/01/21 08:52:38;;;;;;;9.93;3.63;;;2.50;99.90;;;;;;5059735;28;20079;-77
2022/01/21 08:55:05;;;;;;;11.23;2.97;;;2.60;99.90;;;;;;5059372;28;20079;-77
2022/01/21 08:57:34;;;;;;;9.57;3.57;;;2.60;99.90;;;;;;5021900;28;20057;-77
2022/01/21 09:00:00;;;;;;;16.27;4.50;;;2.70;99.90;;;;;;5055237;28;20084;-79
2022/01/21 09:02:26;;;;;;;12.03;3.33;;;2.70;99.90;;;;;;5014507;28;20516;-78
2022/01/21 09:04:51;;;;;;;12.30;3.07;;;2.70;99.90;;;;;;5013443;28;20086;-78
2022/01/21 09:07:17;;;;;;;14.10;3.33;;;2.80;99.90;;;;;;5014611;28;20051;-78
2022/01/21 09:09:43;;;;;;;13.10;3.30;;;2.80;99.90;;;;;;5027135;28;20045;-78
2022/01/21 09:12:09;;;;;;;13.67;3.10;;;2.90;99.90;;;;;;5037226;28;20076;-78
2022/01/21 09:14:35;;;;;;;14.63;3.67;;;2.90;99.90;;;;;;5025314;28;20120;-78
2022/01/21 09:17:01;;;;;;;15.93;3.40;;;2.90;99.90;;;;;;5045102;28;20072;-78
2022/01/21 09:19:27;;;;;;;10.37;3.93;;;2.90;99.90;;;;;;5014509;28;20075;-78
2022/01/21 09:21:54;;;;;;;13.40;3.10;;;3.00;99.90;;;;;;5077782;28;20048;-77
2022/01/21 09:24:21;;;;;;;10.73;3.00;;;3.00;99.90;;;;;;5014604;28;20742;-77
2022/01/21 09:26:48;;;;;;;12.77;3.10;;;3.00;99.90;;;;;;5061763;28;20087;-77
2022/01/21 09:29:14;;;;;;;9.27;2.33;;;3.00;99.90;;;;;;5029271;28;20140;-78
2022/01/21 09:31:40;;;;;;;11.40;2.90;;;3.00;99.90;;;;;;5049102;28;20038;-77
2022/01/21 09:34:06;;;;;;;13.60;2.77;;;3.00;99.90;;;;;;5062901;28;20112;-78
2022/01/21 09:36:33;;;;;;;16.53;3.10;;;3.00;99.90;;;;;;5081020;28;20080;-75
2022/01/21 09:39:00;;;;;;;8.70;3.10;;;3.00;99.90;;;;;;5058165;28;20728;-78
2022/01/21 09:41:28;;;;;;;15.57;3.30;;;3.00;99.90;;;;;;5063891;28;20087;-78
2022/01/21 09:43:55;;;;;;;16.00;3.67;;;3.10;99.90;;;;;;5062517;28;20124;-77
2022/01/21 09:46:31;;;;;;;10.57;3.37;;;3.10;99.90;;;;;;5014006;28;20049;-78
2022/01/21 09:49:07;;;;;;;17.10;3.60;;;3.10;99.90;;;;;;5045198;28;20120;-77
2022/01/21 09:51:37;;;;;;;16.47;4.30;;;3.20;99.90;;;;;;5047624;28;20060;-78
2022/01/21 09:54:07;;;;;;;18.23;4.30;;;3.10;99.90;;;;;;5030245;28;20188;-80
2022/01/21 09:56:37;;;;;;;14.37;3.53;;;3.20;99.90;;;;;;5054903;28;20052;-79
2022/01/21 09:59:03;;;;;;;22.00;4.40;;;3.20;99.90;;;;;;5013584;28;20087;-81
2022/01/21 10:01:29;;;;;;;13.20;3.83;;;3.20;99.90;;;;;;5040030;28;20040;-78
2022/01/21 10:03:56;;;;;;;18.77;4.00;;;3.20;99.90;;;;;;5035784;28;20034;-78
2022/01/21 10:06:26;;;;;;;12.57;2.77;;;3.30;99.90;;;;;;5013721;28;20152;-78
2022/01/21 10:08:54;;;;;;;15.53;3.43;;;3.30;99.90;;;;;;5059860;28;20153;-77
2022/01/21 10:11:21;;;;;;;14.97;3.07;;;3.30;99.90;;;;;;5077423;28;20068;-78
2022/01/21 10:13:48;;;;;;;20.23;3.00;;;3.40;99.90;;;;;;5014556;28;20078;-78
2022/01/21 10:16:14;;;;;;;11.87;2.93;;;3.40;99.90;;;;;;5029329;28;20052;-78
2022/01/21 10:19:05;;;;;;;12.73;3.00;;;3.50;99.90;;;;;;5060425;28;20053;-78
2022/01/21 10:21:33;;;;;;;19.80;3.20;;;3.50;99.90;;;;;;5043856;28;20531;-76
2022/01/21 10:24:13;;;;;;;14.53;3.60;;;3.60;99.90;;;;;;5046490;28;20049;-78
2022/01/21 10:26:47;;;;;;;14.03;2.80;;;3.70;99.90;;;;;;5043092;28;20077;-78
2022/01/21 10:29:13;;;;;;;16.13;3.50;;;3.70;99.90;;;;;;5060055;28;20060;-78
2022/01/21 10:31:54;;;;;;;13.43;3.17;;;3.80;99.90;;;;;;5012479;28;20045;-77
2022/01/21 10:34:39;;;;;;;15.87;3.23;;;3.80;99.90;;;;;;5074029;28;20052;-78
2022/01/21 10:37:34;;;;;;;11.23;2.70;;;3.80;99.90;;;;;;5024450;28;20480;-78
2022/01/21 10:40:08;;;;;;;12.63;3.10;;;3.90;99.90;;;;;;5039237;28;20045;-78
2022/01/21 10:42:34;;;;;;;15.13;2.50;;;3.90;99.90;;;;;;5060205;28;20055;-77
2022/01/21 10:45:01;;;;;;;8.47;2.17;;;3.90;99.90;;;;;;5040265;28;20104;-77
2022/01/21 10:47:28;;;;;;;13.00;2.70;;;3.90;99.90;;;;;;5037852;28;20045;-78
2022/01/21 10:50:23;;;;;;;13.67;2.20;;;4.00;99.90;;;;;;5051914;28;20493;-78
2022/01/21 10:52:52;;;;;;;9.90;2.27;;;4.00;99.90;;;;;;5065472;28;20078;-77
2022/01/21 10:55:36;;;;;;;8.00;2.20;;;4.10;99.90;;;;;;5050450;28;20051;-77
2022/01/21 10:58:16;;;;;;;10.83;2.00;;;4.10;99.90;;;;;;5037139;28;20214;-77
2022/01/21 11:01:17;;;;;;;14.10;2.50;;;4.10;99.90;;;;;;5035505;28;20098;-77
2022/01/21 11:04:11;;;;;;;14.27;2.40;;;4.20;99.90;;;;;;5053709;28;20053;-77
2022/01/21 11:06:55;;;;;;;12.07;2.30;;;4.20;99.90;;;;;;5068594;28;20097;-79
2022/01/21 11:09:26;;;;;;;8.80;1.93;;;4.30;99.90;;;;;;5062440;28;20041;-77
2022/01/21 11:12:16;;;;;;;9.23;2.17;;;4.30;99.90;;;;;;5021130;28;20389;-77
2022/01/21 11:14:58;;;;;;;13.47;2.43;;;4.40;99.90;;;;;;5050846;28;20149;-76
2022/01/21 11:17:24;;;;;;;14.63;3.50;;;4.40;99.90;;;;;;5035673;28;20118;-77
2022/01/21 11:20:02;;;;;;;14.60;2.23;;;4.50;99.90;;;;;;5021229;28;20083;-78
2022/01/21 11:22:29;;;;;;;12.97;2.57;;;4.50;99.90;;;;;;5034834;28;20108;-78
2022/01/21 11:24:59;;;;;;;14.37;2.63;;;4.60;99.90;;;;;;5036762;28;20071;-76
2022/01/21 11:27:25;;;;;;;16.73;2.77;;;4.60;99.90;;;;;;5055723;28;20450;-76
2022/01/21 11:29:53;;;;;;;13.17;2.67;;;4.60;99.90;;;;;;5044933;28;20060;-76
2022/01/21 11:32:19;;;;;;;17.83;3.50;;;4.70;99.90;;;;;;5040867;28;20056;-75
2022/01/21 11:34:45;;;;;;;16.23;3.30;;;4.80;99.90;;;;;;5026028;28;20041;-76
2022/01/21 11:37:11;;;;;;;13.33;2.70;;;4.90;99.90;;;;;;5058885;28;20525;-76
2022/01/21 11:39:38;;;;;;;21.43;3.43;;;5.10;99.90;;;;;;5039436;28;20120;-76
2022/01/21 11:42:06;;;;;;;10.97;3.00;;;5.20;99.90;;;;;;5039762;28;20434;-83
2022/01/21 11:44:36;;;;;;;16.67;3.60;;;5.20;99.90;;;;;;5043278;28;20060;-75
2022/01/21 11:49:37;;;;;;;12.63;3.23;;;5.40;99.90;;;;;;5066498;28;20044;-76
2022/01/21 11:52:12;;;;;;;15.60;3.07;;;5.40;99.90;;;;;;5047279;28;20604;-76
2022/01/21 11:54:39;;;;;;;15.57;2.93;;;5.40;99.90;;;;;;5044798;28;20203;-76
2022/01/21 11:57:06;;;;;;;16.20;3.23;;;5.50;99.90;;;;;;5054381;28;20057;-76
2022/01/21 11:59:38;;;;;;;16.00;2.63;;;5.50;99.90;;;;;;5023090;28;20053;-75
2022/01/21 12:02:13;;;;;;;22.65;3.50;;;5.50;99.90;;;;;;5056578;28;20048;-75
2022/01/21 12:04:40;;;;;;;10.83;2.70;;;5.60;99.90;;;;;;5039612;28;20140;-75
2022/01/21 12:07:35;;;;;;;13.47;3.33;;;5.50;99.90;;;;;;5039812;28;20489;-76
2022/01/21 12:10:05;;;;;;;14.73;3.53;;;5.60;99.90;;;;;;5073484;28;20053;-76
2022/01/21 12:20:50;;;;;;;17.17;3.37;;;5.70;99.90;;;;;;5056374;28;20545;-76
2022/01/21 12:23:21;;;;;;;18.83;3.17;;;5.80;99.90;;;;;;5060715;28;20040;-75
2022/01/21 12:26:16;;;;;;;15.27;2.78;;;5.80;99.90;;;;;;5034874;28;20175;-76
2022/01/21 12:29:06;;;;;;;14.90;2.73;;;5.90;99.90;;;;;;5038311;28;20053;-76
2022/01/21 12:31:51;;;;;;;16.60;3.23;;;6.00;99.90;;;;;;5047990;28;20103;-76
2022/01/21 12:34:17;;;;;;;16.07;2.60;;;6.00;99.90;;;;;;5054395;28;20064;-80
2022/01/21 12:36:53;;;;;;;12.07;2.07;;;6.10;99.90;;;;;;5039274;28;20041;-77
2022/01/21 12:39:43;;;;;;;10.13;2.80;;;6.20;99.90;;;;;;5062190;28;20053;-77
2022/01/21 12:42:21;;;;;;;8.93;2.23;;;6.20;99.90;;;;;;5070437;28;20550;-77
2022/01/21 12:44:57;;;;;;;14.97;2.70;;;6.30;99.90;;;;;;5050804;28;20067;-77
2022/01/21 12:47:43;;;;;;;13.73;2.73;;;6.30;99.90;;;;;;5055110;28;20057;-77
2022/01/21 12:50:38;;;;;;;8.03;2.20;;;6.30;99.90;;;;;;5056765;28;20044;-77
2022/01/21 12:53:20;;;;;;;11.17;2.43;;;6.30;99.90;;;;;;5056977;28;20099;-77
2022/01/21 12:55:55;;;;;;;15.27;2.83;;;6.30;99.90;;;;;;5056638;28;20055;-77
2022/01/21 12:58:26;;;;;;;12.77;2.53;;;6.30;99.90;;;;;;5041733;28;20053;-77
2022/01/21 13:01:04;;;;;;;11.00;2.03;;;6.30;99.90;;;;;;5039435;28;20319;-77
2022/01/21 13:03:39;;;;;;;10.40;1.80;;;6.30;99.90;;;;;;5037981;28;20036;-77
2022/01/21 13:06:20;;;;;;;10.23;1.77;;;6.30;99.90;;;;;;5029082;28;20071;-76
2022/01/21 13:08:52;;;;;;;12.53;1.90;;;6.30;99.90;;;;;;5037644;28;20538;-77
2022/01/21 13:11:23;;;;;;;11.83;1.90;;;6.40;99.90;;;;;;5028616;28;20048;-77
2022/01/21 13:14:12;;;;;;;6.82;1.85;;;6.40;99.90;;;;;;5038426;28;20045;-77
2022/01/21 13:16:40;;;;;;;11.70;1.70;;;6.40;99.90;;;;;;5046955;28;20029;-77
2022/01/21 13:19:06;;;;;;;7.27;2.13;;;6.40;99.90;;;;;;5052024;28;20088;-77
2022/01/21 13:21:34;;;;;;;12.50;2.10;;;6.40;99.90;;;;;;5020489;28;20041;-77
2022/01/21 13:24:03;;;;;;;12.03;1.97;;;6.40;99.90;;;;;;5039303;28;20037;-77
2022/01/21 13:26:36;;;;;;;13.63;2.20;;;6.40;99.90;;;;;;5055123;28;20431;-77
2022/01/21 13:29:06;;;;;;;10.73;1.77;;;6.50;99.90;;;;;;5038451;28;20057;-77
2022/01/21 13:31:51;;;;;;;9.40;1.80;;;6.50;99.90;;;;;;5036784;28;20041;-77
2022/01/21 13:34:22;;;;;;;13.40;2.00;;;6.40;99.90;;;;;;5057701;28;20474;-77
2022/01/21 13:36:49;;;;;;;5.17;1.63;;;6.50;99.90;;;;;;5038837;28;20384;-77
2022/01/21 13:39:23;;;;;;;13.47;2.07;;;6.50;99.90;;;;;;5037611;28;20041;-77
2022/01/21 13:42:10;;;;;;;8.87;3.20;;;6.50;99.90;;;;;;5037169;28;20080;-76
2022/01/21 13:44:44;;;;;;;8.57;2.13;;;6.50;99.90;;;;;;5059097;28;20037;-77
2022/01/21 13:47:31;;;;;;;10.53;2.17;;;6.50;99.90;;;;;;5038758;28;20045;-77
2022/01/21 13:50:17;;;;;;;12.20;2.13;;;6.60;99.90;;;;;;5058118;28;20514;-77
2022/01/21 13:52:43;;;;;;;13.57;2.67;;;6.60;99.90;;;;;;5046208;28;20075;-77
2022/01/21 13:55:12;;;;;;;11.33;2.33;;;6.60;99.90;;;;;;5039218;28;20052;-77
2022/01/21 13:57:45;;;;;;;15.97;2.27;;;6.60;99.90;;;;;;5039836;28;20475;-77
2022/01/21 14:00:11;;;;;;;13.80;2.27;;;6.60;99.90;;;;;;5035118;28;20079;-77
2022/01/21 14:02:37;;;;;;;14.33;2.50;;;6.60;99.90;;;;;;5022368;28;20080;-77